sensor_id;sensor_type;location;lat;lon;timestamp;pressure;altitude;pressure_sealevel;temperature;humidity
70730;BME280;58315;53.336;55.932;2022-07-12T00:00:06;100268.50;;;22.82;55.67
70730;BME280;58315;53.336;55.932;2022-07-12T00:02:33;100273.47;;;22.79;55.63
70730;BME280;58315;53.336;55.932;2022-07-12T00:04:59;100275.13;;;22.80;55.69
70730;BME280;58315;53.336;55.932;2022-07-12T00:07:25;100279.25;;;22.76;55.95
70730;BME280;58315;53.336;55.932;2022-07-12T00:09:51;100286.91;;;22.72;56.14
70730;BME280;58315;53.336;55.932;2022-07-12T00:12:17;100286.47;;;22.69;56.36
70730;BME280;58315;53.336;55.932;2022-07-12T00:14:43;100289.38;;;22.74;56.25
70730;BME280;58315;53.336;55.932;2022-07-12T00:17:09;100294.63;;;22.82;56.04
70730;BME280;58315;53.336;55.932;2022-07-12T00:19:36;100292.13;;;22.87;56.22
70730;BME280;58315;53.336;55.932;2022-07-12T00:22:02;100289.84;;;22.84;56.54
70730;BME280;58315;53.336;55.932;2022-07-12T00:24:28;100289.06;;;22.90;56.27
70730;BME280;58315;53.336;55.932;2022-07-12T00:26:53;100291.56;;;22.92;56.51
70730;BME280;58315;53.336;55.932;2022-07-12T00:29:19;100303.81;;;22.94;56.26
70730;BME280;58315;53.336;55.932;2022-07-12T00:31:45;100289.31;;;23.02;55.97
70730;BME280;58315;53.336;55.932;2022-07-12T00:34:11;100294.75;;;23.08;55.92
70730;BME280;58315;53.336;55.932;2022-07-12T00:36:37;100290.19;;;23.09;56.60
70730;BME280;58315;53.336;55.932;2022-07-12T00:39:03;100288.28;;;23.03;56.72
70730;BME280;58315;53.336;55.932;2022-07-12T00:41:29;100294.13;;;23.13;56.03
70730;BME280;58315;53.336;55.932;2022-07-12T00:43:55;100288.75;;;23.20;55.61
70730;BME280;58315;53.336;55.932;2022-07-12T00:46:23;100292.91;;;23.29;55.51
70730;BME280;58315;53.336;55.932;2022-07-12T00:48:50;100297.47;;;23.28;55.22
70730;BME280;58315;53.336;55.932;2022-07-12T00:51:17;100302.69;;;23.30;55.21
70730;BME280;58315;53.336;55.932;2022-07-12T00:53:43;100297.28;;;23.30;55.07
70730;BME280;58315;53.336;55.932;2022-07-12T00:56:12;100304.34;;;23.38;54.58
70730;BME280;58315;53.336;55.932;2022-07-12T00:58:38;100298.56;;;23.41;54.32
70730;BME280;58315;53.336;55.932;2022-07-12T01:01:05;100308.09;;;23.37;54.14
70730;BME280;58315;53.336;55.932;2022-07-12T01:03:31;100307.66;;;23.33;54.30
70730;BME280;58315;53.336;55.932;2022-07-12T01:05:57;100309.31;;;23.47;54.45
70730;BME280;58315;53.336;55.932;2022-07-12T01:08:23;100320.19;;;23.94;53.65
70730;BME280;58315;53.336;55.932;2022-07-12T01:10:49;100316.00;;;24.44;52.77
70730;BME280;58315;53.336;55.932;2022-07-12T01:13:16;100317.38;;;24.80;51.65
70730;BME280;58315;53.336;55.932;2022-07-12T01:15:42;100310.59;;;25.16;51.03
70730;BME280;58315;53.336;55.932;2022-07-12T01:18:09;100309.97;;;25.45;50.28
70730;BME280;58315;53.336;55.932;2022-07-12T01:20:35;100318.88;;;25.84;49.06
70730;BME280;58315;53.336;55.932;2022-07-12T01:23:02;100309.78;;;26.04;48.87
70730;BME280;58315;53.336;55.932;2022-07-12T01:25:28;100307.75;;;26.17;48.33
70730;BME280;58315;53.336;55.932;2022-07-12T01:27:54;100314.78;;;26.43;47.96
70730;BME280;58315;53.336;55.932;2022-07-12T01:30:20;100313.47;;;26.71;47.89
70730;BME280;58315;53.336;55.932;2022-07-12T01:32:46;100311.28;;;26.61;47.54
70730;BME280;58315;53.336;55.932;2022-07-12T01:35:13;100310.84;;;26.21;48.16
70730;BME280;58315;53.336;55.932;2022-07-12T01:37:42;100320.31;;;25.87;48.92
70730;BME280;58315;53.336;55.932;2022-07-12T01:40:11;100320.09;;;25.57;49.55
70730;BME280;58315;53.336;55.932;2022-07-12T01:42:38;100324.63;;;25.31;50.35
70730;BME280;58315;53.336;55.932;2022-07-12T01:45:06;100328.06;;;25.07;50.75
70730;BME280;58315;53.336;55.932;2022-07-12T01:47:33;100330.22;;;24.91;51.38
70730;BME280;58315;53.336;55.932;2022-07-12T01:50:00;100333.56;;;24.80;51.99
70730;BME280;58315;53.336;55.932;2022-07-12T01:52:26;100338.59;;;24.70;52.05
70730;BME280;58315;53.336;55.932;2022-07-12T01:54:53;100332.97;;;24.71;52.04
70730;BME280;58315;53.336;55.932;2022-07-12T01:57:20;100341.72;;;24.67;52.47
70730;BME280;58315;53.336;55.932;2022-07-12T01:59:47;100342.56;;;24.61;52.71
70730;BME280;58315;53.336;55.932;2022-07-12T02:02:13;100348.41;;;24.58;52.57
70730;BME280;58315;53.336;55.932;2022-07-12T02:04:39;100352.34;;;24.48;52.90
70730;BME280;58315;53.336;55.932;2022-07-12T02:07:05;100353.81;;;24.58;52.73
70730;BME280;58315;53.336;55.932;2022-07-12T02:09:32;100355.06;;;24.55;52.65
70730;BME280;58315;53.336;55.932;2022-07-12T02:11:58;100350.03;;;24.65;52.63
70730;BME280;58315;53.336;55.932;2022-07-12T02:14:24;100351.69;;;24.66;52.94
70730;BME280;58315;53.336;55.932;2022-07-12T02:16:50;100356.66;;;24.76;53.13
70730;BME280;58315;53.336;55.932;2022-07-12T02:19:16;100364.97;;;24.81;52.92
70730;BME280;58315;53.336;55.932;2022-07-12T02:21:42;100355.59;;;24.90;52.69
70730;BME280;58315;53.336;55.932;2022-07-12T02:24:08;100363.69;;;24.90;52.98
70730;BME280;58315;53.336;55.932;2022-07-12T02:26:36;100350.97;;;24.97;53.11
70730;BME280;58315;53.336;55.932;2022-07-12T02:29:03;100352.63;;;24.98;53.11
70730;BME280;58315;53.336;55.932;2022-07-12T02:31:29;100351.13;;;25.09;52.98
70730;BME280;58315;53.336;55.932;2022-07-12T02:33:55;100358.19;;;25.17;52.84
70730;BME280;58315;53.336;55.932;2022-07-12T02:36:21;100354.81;;;25.28;53.04
70730;BME280;58315;53.336;55.932;2022-07-12T02:38:48;100356.44;;;25.36;53.19
70730;BME280;58315;53.336;55.932;2022-07-12T02:41:14;100349.34;;;25.41;53.03
70730;BME280;58315;53.336;55.932;2022-07-12T02:43:40;100346.38;;;25.49;53.03
70730;BME280;58315;53.336;55.932;2022-07-12T02:46:10;100350.81;;;25.69;53.07
70730;BME280;58315;53.336;55.932;2022-07-12T02:48:37;100350.75;;;25.82;53.16
70730;BME280;58315;53.336;55.932;2022-07-12T02:51:04;100342.19;;;26.10;53.23
70730;BME280;58315;53.336;55.932;2022-07-12T02:53:30;100340.63;;;27.01;51.84
70730;BME280;58315;53.336;55.932;2022-07-12T02:55:57;100357.41;;;28.35;50.95
70730;BME280;58315;53.336;55.932;2022-07-12T02:58:23;100354.09;;;29.49;48.00
70730;BME280;58315;53.336;55.932;2022-07-12T03:00:49;100355.47;;;30.48;46.59
70730;BME280;58315;53.336;55.932;2022-07-12T03:03:15;100357.91;;;31.54;44.28
70730;BME280;58315;53.336;55.932;2022-07-12T03:05:42;100356.94;;;32.35;43.30
70730;BME280;58315;53.336;55.932;2022-07-12T03:08:09;100363.72;;;33.37;42.50
70730;BME280;58315;53.336;55.932;2022-07-12T03:10:37;100355.03;;;34.07;39.98
70730;BME280;58315;53.336;55.932;2022-07-12T03:13:03;100361.84;;;34.50;38.95
70730;BME280;58315;53.336;55.932;2022-07-12T03:15:30;100369.75;;;34.77;40.05
70730;BME280;58315;53.336;55.932;2022-07-12T03:17:57;100361.78;;;34.66;38.62
70730;BME280;58315;53.336;55.932;2022-07-12T03:20:23;100367.91;;;34.22;38.34
70730;BME280;58315;53.336;55.932;2022-07-12T03:22:49;100366.81;;;33.87;39.78
70730;BME280;58315;53.336;55.932;2022-07-12T03:25:18;100370.91;;;33.74;39.89
70730;BME280;58315;53.336;55.932;2022-07-12T03:27:44;100363.81;;;33.99;39.93
70730;BME280;58315;53.336;55.932;2022-07-12T03:30:11;100364.09;;;34.13;39.71
70730;BME280;58315;53.336;55.932;2022-07-12T03:32:38;100360.81;;;34.05;39.19
70730;BME280;58315;53.336;55.932;2022-07-12T03:35:04;100358.25;;;34.70;38.90
70730;BME280;58315;53.336;55.932;2022-07-12T03:37:46;100356.59;;;35.73;37.89
70730;BME280;58315;53.336;55.932;2022-07-12T03:40:13;100356.25;;;36.14;37.18
70730;BME280;58315;53.336;55.932;2022-07-12T03:42:41;100361.47;;;36.69;35.94
70730;BME280;58315;53.336;55.932;2022-07-12T03:45:07;100365.63;;;36.90;35.72
70730;BME280;58315;53.336;55.932;2022-07-12T03:47:34;100366.22;;;37.49;34.75
70730;BME280;58315;53.336;55.932;2022-07-12T03:50:08;100364.31;;;37.82;33.65
70730;BME280;58315;53.336;55.932;2022-07-12T03:52:34;100360.19;;;38.45;33.94
70730;BME280;58315;53.336;55.932;2022-07-12T03:55:00;100361.31;;;39.13;32.63
70730;BME280;58315;53.336;55.932;2022-07-12T03:57:30;100354.25;;;39.80;31.18
70730;BME280;58315;53.336;55.932;2022-07-12T03:59:57;100368.84;;;40.25;30.90
70730;BME280;58315;53.336;55.932;2022-07-12T04:02:23;100361.38;;;40.65;30.56
70730;BME280;58315;53.336;55.932;2022-07-12T04:04:50;100363.38;;;40.82;29.72
70730;BME280;58315;53.336;55.932;2022-07-12T04:07:17;100360.34;;;41.01;29.46
70730;BME280;58315;53.336;55.932;2022-07-12T04:09:43;100364.28;;;41.35;28.82
70730;BME280;58315;53.336;55.932;2022-07-12T04:12:09;100364.78;;;41.72;29.19
70730;BME280;58315;53.336;55.932;2022-07-12T04:14:35;100372.91;;;41.94;28.71
70730;BME280;58315;53.336;55.932;2022-07-12T04:17:02;100366.31;;;42.25;27.58
70730;BME280;58315;53.336;55.932;2022-07-12T04:19:28;100366.47;;;42.20;27.65
70730;BME280;58315;53.336;55.932;2022-07-12T04:21:57;100359.41;;;42.39;27.27
70730;BME280;58315;53.336;55.932;2022-07-12T04:24:24;100367.84;;;42.90;27.59
70730;BME280;58315;53.336;55.932;2022-07-12T04:26:50;100371.03;;;43.01;26.36
70730;BME280;58315;53.336;55.932;2022-07-12T04:29:16;100367.41;;;43.00;26.94
70730;BME280;58315;53.336;55.932;2022-07-12T04:31:42;100360.44;;;42.94;27.43
70730;BME280;58315;53.336;55.932;2022-07-12T04:34:08;100368.69;;;43.32;26.48
70730;BME280;58315;53.336;55.932;2022-07-12T04:36:34;100367.09;;;43.52;26.72
70730;BME280;58315;53.336;55.932;2022-07-12T04:39:00;100367.09;;;43.52;26.61
70730;BME280;58315;53.336;55.932;2022-07-12T04:41:26;100363.47;;;43.31;26.89
70730;BME280;58315;53.336;55.932;2022-07-12T04:43:52;100370.69;;;43.44;26.83
70730;BME280;58315;53.336;55.932;2022-07-12T04:46:18;100368.91;;;43.27;26.65
70730;BME280;58315;53.336;55.932;2022-07-12T04:48:47;100373.03;;;43.42;26.72
70730;BME280;58315;53.336;55.932;2022-07-12T04:51:12;100363.34;;;43.48;27.02
70730;BME280;58315;53.336;55.932;2022-07-12T04:53:40;100365.25;;;43.90;26.32
70730;BME280;58315;53.336;55.932;2022-07-12T04:56:06;100366.09;;;44.02;26.42
70730;BME280;58315;53.336;55.932;2022-07-12T04:58:32;100361.69;;;44.01;26.43
70730;BME280;58315;53.336;55.932;2022-07-12T05:00:58;100363.78;;;44.17;26.44
70730;BME280;58315;53.336;55.932;2022-07-12T05:03:24;100370.53;;;44.03;26.60
70730;BME280;58315;53.336;55.932;2022-07-12T05:05:55;100361.97;;;44.58;25.89
70730;BME280;58315;53.336;55.932;2022-07-12T05:08:21;100360.25;;;44.53;25.90
70730;BME280;58315;53.336;55.932;2022-07-12T05:10:47;100357.34;;;44.98;25.24
70730;BME280;58315;53.336;55.932;2022-07-12T05:13:13;100366.59;;;45.15;25.79
70730;BME280;58315;53.336;55.932;2022-07-12T05:15:39;100363.31;;;45.25;25.31
70730;BME280;58315;53.336;55.932;2022-07-12T05:18:05;100367.03;;;45.29;25.00
70730;BME280;58315;53.336;55.932;2022-07-12T05:20:31;100362.13;;;45.38;24.93
70730;BME280;58315;53.336;55.932;2022-07-12T05:22:57;100368.69;;;45.58;25.05
70730;BME280;58315;53.336;55.932;2022-07-12T05:25:23;100373.06;;;45.31;25.17
70730;BME280;58315;53.336;55.932;2022-07-12T05:27:49;100366.56;;;45.27;24.96
70730;BME280;58315;53.336;55.932;2022-07-12T05:30:15;100361.66;;;45.36;25.15
70730;BME280;58315;53.336;55.932;2022-07-12T05:32:41;100364.59;;;45.68;24.87
70730;BME280;58315;53.336;55.932;2022-07-12T05:35:07;100365.09;;;45.58;24.66
70730;BME280;58315;53.336;55.932;2022-07-12T05:37:33;100367.41;;;45.56;24.94
70730;BME280;58315;53.336;55.932;2022-07-12T05:39:59;100365.72;;;45.67;25.38
70730;BME280;58315;53.336;55.932;2022-07-12T05:42:25;100368.16;;;45.97;25.00
70730;BME280;58315;53.336;55.932;2022-07-12T05:44:51;100373.28;;;45.66;25.81
70730;BME280;58315;53.336;55.932;2022-07-12T05:47:19;100378.34;;;45.61;25.36
70730;BME280;58315;53.336;55.932;2022-07-12T05:49:45;100376.13;;;45.82;24.89
70730;BME280;58315;53.336;55.932;2022-07-12T05:52:11;100372.41;;;45.22;25.22
70730;BME280;58315;53.336;55.932;2022-07-12T05:54:55;100375.88;;;45.19;25.50
70730;BME280;58315;53.336;55.932;2022-07-12T05:57:21;100367.59;;;45.35;24.81
70730;BME280;58315;53.336;55.932;2022-07-12T05:59:47;100375.13;;;45.34;25.22
70730;BME280;58315;53.336;55.932;2022-07-12T06:02:14;100379.44;;;45.72;25.08
70730;BME280;58315;53.336;55.932;2022-07-12T06:04:42;100375.47;;;46.01;25.28
70730;BME280;58315;53.336;55.932;2022-07-12T06:07:08;100373.63;;;46.37;24.52
70730;BME280;58315;53.336;55.932;2022-07-12T06:09:35;100374.47;;;46.09;24.65
70730;BME280;58315;53.336;55.932;2022-07-12T06:12:01;100371.09;;;46.63;24.01
70730;BME280;58315;53.336;55.932;2022-07-12T06:14:27;100371.59;;;46.69;24.15
70730;BME280;58315;53.336;55.932;2022-07-12T06:16:56;100372.38;;;46.85;23.93
70730;BME280;58315;53.336;55.932;2022-07-12T06:19:22;100374.47;;;46.88;24.51
70730;BME280;58315;53.336;55.932;2022-07-12T06:21:49;100363.25;;;47.04;24.12
70730;BME280;58315;53.336;55.932;2022-07-12T06:24:17;100360.81;;;46.87;23.67
70730;BME280;58315;53.336;55.932;2022-07-12T06:26:46;100361.31;;;46.10;23.61
70730;BME280;58315;53.336;55.932;2022-07-12T06:29:12;100365.81;;;45.83;24.56
70730;BME280;58315;53.336;55.932;2022-07-12T06:31:40;100361.16;;;45.75;25.43
70730;BME280;58315;53.336;55.932;2022-07-12T06:34:06;100362.22;;;45.70;25.12
70730;BME280;58315;53.336;55.932;2022-07-12T06:36:32;100367.72;;;45.26;25.50
70730;BME280;58315;53.336;55.932;2022-07-12T06:38:58;100365.72;;;44.62;25.57
70730;BME280;58315;53.336;55.932;2022-07-12T06:41:25;100361.91;;;43.63;26.77
70730;BME280;58315;53.336;55.932;2022-07-12T06:43:53;100366.63;;;42.70;27.69
70730;BME280;58315;53.336;55.932;2022-07-12T06:46:22;100362.81;;;41.98;28.44
70730;BME280;58315;53.336;55.932;2022-07-12T06:48:48;100355.13;;;41.08;29.80
70730;BME280;58315;53.336;55.932;2022-07-12T06:51:16;100362.78;;;39.92;31.06
70730;BME280;58315;53.336;55.932;2022-07-12T06:53:42;100344.34;;;39.42;31.77
70730;BME280;58315;53.336;55.932;2022-07-12T06:56:08;100347.97;;;39.15;32.33
70730;BME280;58315;53.336;55.932;2022-07-12T06:58:36;100351.41;;;38.98;32.34
70730;BME280;58315;53.336;55.932;2022-07-12T07:01:02;100348.75;;;38.38;33.03
70730;BME280;58315;53.336;55.932;2022-07-12T07:03:28;100349.56;;;38.39;33.20
70730;BME280;58315;53.336;55.932;2022-07-12T07:05:54;100350.53;;;38.15;33.41
70730;BME280;58315;53.336;55.932;2022-07-12T07:08:20;100350.75;;;38.19;33.96
70730;BME280;58315;53.336;55.932;2022-07-12T07:10:46;100360.59;;;38.39;32.39
70730;BME280;58315;53.336;55.932;2022-07-12T07:13:12;100362.06;;;38.17;31.72
70730;BME280;58315;53.336;55.932;2022-07-12T07:15:41;100347.56;;;37.79;33.10
70730;BME280;58315;53.336;55.932;2022-07-12T07:18:08;100352.31;;;37.73;33.30
70730;BME280;58315;53.336;55.932;2022-07-12T07:20:34;100343.28;;;37.86;32.58
70730;BME280;58315;53.336;55.932;2022-07-12T07:23:00;100352.16;;;37.83;33.11
70730;BME280;58315;53.336;55.932;2022-07-12T07:25:26;100354.78;;;37.94;32.53
70730;BME280;58315;53.336;55.932;2022-07-12T07:27:52;100352.69;;;37.85;32.57
70730;BME280;58315;53.336;55.932;2022-07-12T07:30:18;100345.19;;;37.72;32.61
70730;BME280;58315;53.336;55.932;2022-07-12T07:33:02;100343.06;;;37.83;33.31
70730;BME280;58315;53.336;55.932;2022-07-12T07:35:28;100337.19;;;37.90;33.49
70730;BME280;58315;53.336;55.932;2022-07-12T07:37:55;100332.31;;;38.00;33.32
70730;BME280;58315;53.336;55.932;2022-07-12T07:40:21;100337.25;;;38.03;33.54
70730;BME280;58315;53.336;55.932;2022-07-12T07:42:47;100339.56;;;37.96;33.22
70730;BME280;58315;53.336;55.932;2022-07-12T07:45:13;100344.03;;;37.59;33.07
70730;BME280;58315;53.336;55.932;2022-07-12T07:47:46;100344.41;;;37.53;33.43
70730;BME280;58315;53.336;55.932;2022-07-12T07:50:12;100336.34;;;37.37;33.35
70730;BME280;58315;53.336;55.932;2022-07-12T07:52:38;100334.47;;;37.14;33.15
70730;BME280;58315;53.336;55.932;2022-07-12T07:55:05;100340.97;;;37.23;33.03
70730;BME280;58315;53.336;55.932;2022-07-12T07:57:31;100337.97;;;37.38;33.81
70730;BME280;58315;53.336;55.932;2022-07-12T07:59:56;100325.38;;;37.13;33.50
70730;BME280;58315;53.336;55.932;2022-07-12T08:02:22;100330.69;;;37.10;33.40
70730;BME280;58315;53.336;55.932;2022-07-12T08:04:48;100332.69;;;37.23;33.36
70730;BME280;58315;53.336;55.932;2022-07-12T08:07:14;100333.53;;;37.43;33.26
70730;BME280;58315;53.336;55.932;2022-07-12T08:09:40;100321.97;;;37.59;33.56
70730;BME280;58315;53.336;55.932;2022-07-12T08:12:06;100318.38;;;37.59;32.80
70730;BME280;58315;53.336;55.932;2022-07-12T08:14:32;100313.94;;;37.44;32.57
70730;BME280;58315;53.336;55.932;2022-07-12T08:16:58;100311.38;;;37.67;32.96
70730;BME280;58315;53.336;55.932;2022-07-12T08:19:24;100315.88;;;37.76;32.91
70730;BME280;58315;53.336;55.932;2022-07-12T08:21:50;100307.88;;;37.61;32.98
70730;BME280;58315;53.336;55.932;2022-07-12T08:24:16;100305.72;;;37.39;32.73
70730;BME280;58315;53.336;55.932;2022-07-12T08:26:42;100299.03;;;37.26;33.24
70730;BME280;58315;53.336;55.932;2022-07-12T08:29:08;100305.97;;;37.43;33.36
70730;BME280;58315;53.336;55.932;2022-07-12T08:31:34;100293.28;;;37.60;33.51
70730;BME280;58315;53.336;55.932;2022-07-12T08:34:00;100297.19;;;37.73;33.31
70730;BME280;58315;53.336;55.932;2022-07-12T08:36:26;100300.69;;;37.79;33.68
70730;BME280;58315;53.336;55.932;2022-07-12T08:38:55;100293.97;;;37.85;32.89
70730;BME280;58315;53.336;55.932;2022-07-12T08:41:21;100295.13;;;37.98;32.86
70730;BME280;58315;53.336;55.932;2022-07-12T08:43:47;100292.88;;;38.13;33.69
70730;BME280;58315;53.336;55.932;2022-07-12T08:46:14;100291.69;;;38.33;33.24
70730;BME280;58315;53.336;55.932;2022-07-12T08:48:42;100294.00;;;38.12;32.30
70730;BME280;58315;53.336;55.932;2022-07-12T08:51:18;100290.34;;;38.31;32.83
70730;BME280;58315;53.336;55.932;2022-07-12T08:53:45;100300.69;;;38.25;32.09
70730;BME280;58315;53.336;55.932;2022-07-12T08:56:30;100298.88;;;38.48;31.27
70730;BME280;58315;53.336;55.932;2022-07-12T09:04:12;100296.31;;;38.38;31.51
70730;BME280;58315;53.336;55.932;2022-07-12T09:06:38;100295.09;;;38.58;31.78
70730;BME280;58315;53.336;55.932;2022-07-12T09:09:04;100291.91;;;38.37;31.41
70730;BME280;58315;53.336;55.932;2022-07-12T09:11:30;100296.84;;;38.40;31.77
70730;BME280;58315;53.336;55.932;2022-07-12T09:13:56;100303.31;;;38.30;31.09
70730;BME280;58315;53.336;55.932;2022-07-12T09:16:24;100284.31;;;38.01;31.51
70730;BME280;58315;53.336;55.932;2022-07-12T09:18:51;100291.66;;;38.06;31.49
70730;BME280;58315;53.336;55.932;2022-07-12T09:21:24;100296.88;;;38.21;31.74
70730;BME280;58315;53.336;55.932;2022-07-12T09:23:52;100288.41;;;38.31;32.33
70730;BME280;58315;53.336;55.932;2022-07-12T09:26:18;100286.34;;;38.23;31.68
70730;BME280;58315;53.336;55.932;2022-07-12T09:28:44;100288.91;;;38.06;32.39
70730;BME280;58315;53.336;55.932;2022-07-12T09:31:10;100282.66;;;38.00;32.57
70730;BME280;58315;53.336;55.932;2022-07-12T09:33:37;100290.41;;;37.98;32.40
70730;BME280;58315;53.336;55.932;2022-07-12T09:36:23;100292.47;;;38.06;31.82
70730;BME280;58315;53.336;55.932;2022-07-12T09:38:52;100288.59;;;38.07;32.11
70730;BME280;58315;53.336;55.932;2022-07-12T09:41:27;100289.84;;;38.15;30.83
70730;BME280;58315;53.336;55.932;2022-07-12T09:43:53;100291.47;;;38.30;31.17
70730;BME280;58315;53.336;55.932;2022-07-12T09:46:19;100299.44;;;38.31;30.94
70730;BME280;58315;53.336;55.932;2022-07-12T09:48:46;100299.28;;;38.42;30.69
70730;BME280;58315;53.336;55.932;2022-07-12T09:51:17;100303.97;;;38.41;29.95
70730;BME280;58315;53.336;55.932;2022-07-12T09:53:45;100301.91;;;38.47;30.72
70730;BME280;58315;53.336;55.932;2022-07-12T09:56:17;100297.63;;;38.54;30.30
70730;BME280;58315;53.336;55.932;2022-07-12T09:58:55;100301.38;;;38.31;30.72
70730;BME280;58315;53.336;55.932;2022-07-12T10:01:23;100302.91;;;38.23;30.96
70730;BME280;58315;53.336;55.932;2022-07-12T10:03:51;100300.28;;;38.18;30.67
70730;BME280;58315;53.336;55.932;2022-07-12T10:06:24;100296.84;;;38.40;30.69
70730;BME280;58315;53.336;55.932;2022-07-12T10:08:51;100290.78;;;38.38;30.57
70730;BME280;58315;53.336;55.932;2022-07-12T10:11:18;100300.09;;;38.42;30.94
70730;BME280;58315;53.336;55.932;2022-07-12T10:13:46;100295.91;;;38.45;30.48
70730;BME280;58315;53.336;55.932;2022-07-12T10:16:14;100291.59;;;38.39;30.78
70730;BME280;58315;53.336;55.932;2022-07-12T10:18:41;100298.00;;;38.20;31.39
70730;BME280;58315;53.336;55.932;2022-07-12T10:21:20;100298.41;;;38.27;33.12
70730;BME280;58315;53.336;55.932;2022-07-12T10:23:47;100297.69;;;38.08;33.07
70730;BME280;58315;53.336;55.932;2022-07-12T10:29:02;100281.94;;;37.62;33.79
70730;BME280;58315;53.336;55.932;2022-07-12T10:31:33;100282.03;;;37.38;33.65
70730;BME280;58315;53.336;55.932;2022-07-12T10:39:26;100260.69;;;37.62;33.60
70730;BME280;58315;53.336;55.932;2022-07-12T10:42:18;100258.25;;;37.61;34.23
70730;BME280;58315;53.336;55.932;2022-07-12T10:44:47;100247.41;;;37.51;33.97
70730;BME280;58315;53.336;55.932;2022-07-12T10:47:15;100256.53;;;37.65;33.35
70730;BME280;58315;53.336;55.932;2022-07-12T10:49:50;100255.16;;;37.81;33.24
70730;BME280;58315;53.336;55.932;2022-07-12T10:52:25;100261.13;;;37.56;33.55
70730;BME280;58315;53.336;55.932;2022-07-12T11:00:07;100266.19;;;37.11;33.58
70730;BME280;58315;53.336;55.932;2022-07-12T11:02:35;100264.78;;;37.13;33.76
70730;BME280;58315;53.336;55.932;2022-07-12T11:05:00;100269.03;;;37.25;33.51
70730;BME280;58315;53.336;55.932;2022-07-12T11:07:27;100269.78;;;37.30;34.04
70730;BME280;58315;53.336;55.932;2022-07-12T11:09:54;100275.78;;;37.32;33.73
70730;BME280;58315;53.336;55.932;2022-07-12T11:12:27;100278.63;;;37.27;33.70
70730;BME280;58315;53.336;55.932;2022-07-12T11:14:54;100274.47;;;37.11;33.78
70730;BME280;58315;53.336;55.932;2022-07-12T11:17:25;100264.00;;;36.89;33.90
70730;BME280;58315;53.336;55.932;2022-07-12T11:22:39;100261.34;;;36.84;33.78
70730;BME280;58315;53.336;55.932;2022-07-12T11:25:08;100259.63;;;36.69;34.05
70730;BME280;58315;53.336;55.932;2022-07-12T11:27:34;100263.94;;;36.75;34.13
70730;BME280;58315;53.336;55.932;2022-07-12T11:30:01;100266.47;;;36.72;33.66
70730;BME280;58315;53.336;55.932;2022-07-12T11:32:40;100280.72;;;36.55;34.05
70730;BME280;58315;53.336;55.932;2022-07-12T11:35:19;100261.22;;;35.98;35.58
70730;BME280;58315;53.336;55.932;2022-07-12T11:37:50;100265.59;;;36.04;35.71
70730;BME280;58315;53.336;55.932;2022-07-12T11:40:28;100269.63;;;35.83;36.32
70730;BME280;58315;53.336;55.932;2022-07-12T11:42:59;100267.41;;;35.56;36.82
70730;BME280;58315;53.336;55.932;2022-07-12T11:45:29;100263.84;;;35.55;36.72
70730;BME280;58315;53.336;55.932;2022-07-12T11:48:00;100267.03;;;35.67;36.39
70730;BME280;58315;53.336;55.932;2022-07-12T11:50:29;100285.28;;;35.58;36.78
70730;BME280;58315;53.336;55.932;2022-07-12T11:52:55;100280.09;;;35.52;36.87
70730;BME280;58315;53.336;55.932;2022-07-12T11:55:22;100270.44;;;35.54;36.58
70730;BME280;58315;53.336;55.932;2022-07-12T11:57:49;100281.25;;;35.40;36.54
70730;BME280;58315;53.336;55.932;2022-07-12T12:00:20;100284.84;;;35.36;36.88
70730;BME280;58315;53.336;55.932;2022-07-12T12:02:51;100306.94;;;35.20;36.79
70730;BME280;58315;53.336;55.932;2022-07-12T12:05:18;100322.75;;;34.84;37.48
70730;BME280;58315;53.336;55.932;2022-07-12T12:07:44;100316.91;;;34.31;39.59
70730;BME280;58315;53.336;55.932;2022-07-12T12:10:20;100311.69;;;33.43;41.51
70730;BME280;58315;53.336;55.932;2022-07-12T12:12:54;100345.50;;;32.43;42.02
70730;BME280;58315;53.336;55.932;2022-07-12T12:15:25;100330.19;;;32.00;43.37
70730;BME280;58315;53.336;55.932;2022-07-12T12:18:01;100333.03;;;31.29;44.28
70730;BME280;58315;53.336;55.932;2022-07-12T12:20:39;100328.72;;;30.84;44.86
70730;BME280;58315;53.336;55.932;2022-07-12T12:23:06;100353.84;;;30.47;46.17
70730;BME280;58315;53.336;55.932;2022-07-12T12:25:39;100378.63;;;29.95;47.21
70730;BME280;58315;53.336;55.932;2022-07-12T12:28:05;100403.56;;;29.29;49.85
70730;BME280;58315;53.336;55.932;2022-07-12T12:30:33;100428.75;;;28.19;52.62
70730;BME280;58315;53.336;55.932;2022-07-12T12:33:04;100410.47;;;27.43;55.73
70730;BME280;58315;53.336;55.932;2022-07-12T12:35:35;100446.97;;;26.85;56.58
70730;BME280;58315;53.336;55.932;2022-07-12T12:38:03;100417.88;;;26.30;58.53
70730;BME280;58315;53.336;55.932;2022-07-12T12:40:36;100420.47;;;26.18;59.27
70730;BME280;58315;53.336;55.932;2022-07-12T12:43:07;100425.94;;;26.12;59.15
70730;BME280;58315;53.336;55.932;2022-07-12T12:45:34;100405.09;;;25.74;60.50
70730;BME280;58315;53.336;55.932;2022-07-12T12:48:05;100402.94;;;25.58;60.79
70730;BME280;58315;53.336;55.932;2022-07-12T12:50:42;100409.81;;;25.54;59.40
70730;BME280;58315;53.336;55.932;2022-07-12T12:55:35;100428.44;;;25.30;58.96
70730;BME280;58315;53.336;55.932;2022-07-12T12:58:01;100436.03;;;24.95;58.90
70730;BME280;58315;53.336;55.932;2022-07-12T13:00:30;100427.69;;;25.16;55.83
70730;BME280;58315;53.336;55.932;2022-07-12T13:02:57;100450.97;;;25.62;55.31
70730;BME280;58315;53.336;55.932;2022-07-12T13:05:28;100479.31;;;25.60;58.15